sensor_id;sensor_type;location;lat;lon;timestamp;P1;durP1;ratioP1;P2;durP2;ratioP2
68025;SDS011;54819;48.030;14.710;2023-04-06T00:00:51;7.50;;;2.90;;
68025;SDS011;54819;48.030;14.710;2023-04-06T00:03:18;6.00;;;2.70;;
68025;SDS011;54819;48.030;14.710;2023-04-06T00:05:46;8.60;;;3.20;;
68025;SDS011;54819;48.030;14.710;2023-04-06T00:08:13;8.40;;;3.40;;
68025;SDS011;54819;48.030;14.710;2023-04-06T00:10:40;7.20;;;3.10;;
68025;SDS011;54819;48.030;14.710;2023-04-06T00:13:07;6.50;;;3.20;;
68025;SDS011;54819;48.030;14.710;2023-04-06T00:15:34;7.80;;;3.20;;
68025;SDS011;54819;48.030;14.710;2023-04-06T00:18:01;10.00;;;3.40;;
68025;SDS011;54819;48.030;14.710;2023-04-06T00:20:28;5.80;;;2.50;;
68025;SDS011;54819;48.030;14.710;2023-04-06T00:22:55;10.50;;;3.50;;
68025;SDS011;54819;48.030;14.710;2023-04-06T00:25:22;10.90;;;3.90;;
68025;SDS011;54819;48.030;14.710;2023-04-06T00:27:49;6.60;;;2.80;;
68025;SDS011;54819;48.030;14.710;2023-04-06T00:30:16;7.60;;;2.90;;
68025;SDS011;54819;48.030;14.710;2023-04-06T00:32:43;7.00;;;3.80;;
68025;SDS011;54819;48.030;14.710;2023-04-06T00:35:09;11.50;;;3.90;;
68025;SDS011;54819;48.030;14.710;2023-04-06T00:37:37;11.00;;;4.00;;
68025;SDS011;54819;48.030;14.710;2023-04-06T00:40:04;10.10;;;3.90;;
68025;SDS011;54819;48.030;14.710;2023-04-06T00:42:31;9.80;;;4.00;;
68025;SDS011;54819;48.030;14.710;2023-04-06T00:44:59;9.00;;;3.70;;
68025;SDS011;54819;48.030;14.710;2023-04-06T00:47:27;9.70;;;3.50;;
68025;SDS011;54819;48.030;14.710;2023-04-06T00:49:56;9.50;;;4.50;;
68025;SDS011;54819;48.030;14.710;2023-04-06T00:52:23;9.80;;;4.50;;
68025;SDS011;54819;48.030;14.710;2023-04-06T00:54:50;12.90;;;4.80;;
68025;SDS011;54819;48.030;14.710;2023-04-06T00:57:18;11.60;;;5.70;;
68025;SDS011;54819;48.030;14.710;2023-04-06T00:59:49;8.30;;;4.70;;
68025;SDS011;54819;48.030;14.710;2023-04-06T01:02:18;8.60;;;4.40;;
68025;SDS011;54819;48.030;14.710;2023-04-06T01:04:47;7.40;;;4.00;;
68025;SDS011;54819;48.030;14.710;2023-04-06T01:07:21;11.40;;;3.70;;
68025;SDS011;54819;48.030;14.710;2023-04-06T01:10:00;10.60;;;3.60;;
68025;SDS011;54819;48.030;14.710;2023-04-06T01:12:29;13.60;;;4.10;;
68025;SDS011;54819;48.030;14.710;2023-04-06T01:14:59;8.40;;;4.20;;
68025;SDS011;54819;48.030;14.710;2023-04-06T01:19:56;5.60;;;2.90;;
68025;SDS011;54819;48.030;14.710;2023-04-06T01:22:26;7.10;;;3.10;;
68025;SDS011;54819;48.030;14.710;2023-04-06T01:24:59;8.50;;;3.00;;
68025;SDS011;54819;48.030;14.710;2023-04-06T01:27:52;7.50;;;3.20;;
68025;SDS011;54819;48.030;14.710;2023-04-06T01:30:22;8.20;;;3.60;;
68025;SDS011;54819;48.030;14.710;2023-04-06T01:32:52;9.50;;;3.40;;
68025;SDS011;54819;48.030;14.710;2023-04-06T01:35:29;10.50;;;3.00;;
68025;SDS011;54819;48.030;14.710;2023-04-06T01:38:11;6.80;;;3.10;;
68025;SDS011;54819;48.030;14.710;2023-04-06T01:40:38;8.40;;;3.10;;
68025;SDS011;54819;48.030;14.710;2023-04-06T01:43:04;6.90;;;3.30;;
68025;SDS011;54819;48.030;14.710;2023-04-06T01:45:36;7.90;;;3.10;;
68025;SDS011;54819;48.030;14.710;2023-04-06T01:48:12;7.90;;;3.30;;
68025;SDS011;54819;48.030;14.710;2023-04-06T01:50:38;9.10;;;3.20;;
68025;SDS011;54819;48.030;14.710;2023-04-06T01:53:06;9.30;;;2.90;;
68025;SDS011;54819;48.030;14.710;2023-04-06T01:55:33;10.30;;;3.40;;
68025;SDS011;54819;48.030;14.710;2023-04-06T01:58:20;5.10;;;2.20;;
68025;SDS011;54819;48.030;14.710;2023-04-06T02:00:47;5.90;;;2.80;;
68025;SDS011;54819;48.030;14.710;2023-04-06T02:03:14;8.60;;;3.40;;
68025;SDS011;54819;48.030;14.710;2023-04-06T02:05:41;10.50;;;3.40;;
68025;SDS011;54819;48.030;14.710;2023-04-06T02:08:17;9.70;;;4.20;;
68025;SDS011;54819;48.030;14.710;2023-04-06T02:10:45;8.60;;;3.90;;
68025;SDS011;54819;48.030;14.710;2023-04-06T02:13:19;9.80;;;4.10;;
68025;SDS011;54819;48.030;14.710;2023-04-06T02:15:48;9.80;;;3.60;;
68025;SDS011;54819;48.030;14.710;2023-04-06T02:18:15;5.70;;;2.90;;
68025;SDS011;54819;48.030;14.710;2023-04-06T02:20:44;7.50;;;3.20;;
68025;SDS011;54819;48.030;14.710;2023-04-06T02:23:12;6.10;;;2.90;;
68025;SDS011;54819;48.030;14.710;2023-04-06T02:25:39;6.60;;;3.10;;
68025;SDS011;54819;48.030;14.710;2023-04-06T02:28:06;7.20;;;3.00;;
68025;SDS011;54819;48.030;14.710;2023-04-06T02:30:34;8.40;;;3.70;;
68025;SDS011;54819;48.030;14.710;2023-04-06T02:33:01;8.30;;;3.40;;
68025;SDS011;54819;48.030;14.710;2023-04-06T02:35:33;5.70;;;2.80;;
68025;SDS011;54819;48.030;14.710;2023-04-06T02:37:59;6.80;;;3.30;;
68025;SDS011;54819;48.030;14.710;2023-04-06T02:40:26;9.40;;;3.90;;
68025;SDS011;54819;48.030;14.710;2023-04-06T02:42:54;9.90;;;4.70;;
68025;SDS011;54819;48.030;14.710;2023-04-06T02:45:26;6.90;;;3.40;;
68025;SDS011;54819;48.030;14.710;2023-04-06T02:47:53;8.20;;;3.30;;
68025;SDS011;54819;48.030;14.710;2023-04-06T02:50:21;8.80;;;3.20;;
68025;SDS011;54819;48.030;14.710;2023-04-06T02:52:54;6.40;;;2.80;;
68025;SDS011;54819;48.030;14.710;2023-04-06T02:55:21;7.90;;;4.10;;
68025;SDS011;54819;48.030;14.710;2023-04-06T02:57:48;10.20;;;3.40;;
68025;SDS011;54819;48.030;14.710;2023-04-06T03:00:16;8.00;;;3.20;;
68025;SDS011;54819;48.030;14.710;2023-04-06T03:02:43;9.40;;;3.60;;
68025;SDS011;54819;48.030;14.710;2023-04-06T03:05:14;7.70;;;3.50;;
68025;SDS011;54819;48.030;14.710;2023-04-06T03:10:13;10.00;;;4.10;;
68025;SDS011;54819;48.030;14.710;2023-04-06T03:12:40;8.70;;;3.70;;
68025;SDS011;54819;48.030;14.710;2023-04-06T03:15:16;8.40;;;3.30;;
68025;SDS011;54819;48.030;14.710;2023-04-06T03:17:47;8.10;;;3.80;;
68025;SDS011;54819;48.030;14.710;2023-04-06T03:20:29;8.50;;;4.10;;
68025;SDS011;54819;48.030;14.710;2023-04-06T03:22:56;12.70;;;4.10;;
68025;SDS011;54819;48.030;14.710;2023-04-06T03:25:25;12.00;;;4.50;;
68025;SDS011;54819;48.030;14.710;2023-04-06T03:27:52;11.40;;;4.50;;
68025;SDS011;54819;48.030;14.710;2023-04-06T03:30:20;7.90;;;4.20;;
68025;SDS011;54819;48.030;14.710;2023-04-06T03:32:46;10.20;;;3.80;;
68025;SDS011;54819;48.030;14.710;2023-04-06T03:35:14;7.10;;;2.80;;
68025;SDS011;54819;48.030;14.710;2023-04-06T03:37:41;8.50;;;3.10;;
68025;SDS011;54819;48.030;14.710;2023-04-06T03:40:09;6.30;;;2.80;;
68025;SDS011;54819;48.030;14.710;2023-04-06T03:42:36;6.70;;;3.70;;
68025;SDS011;54819;48.030;14.710;2023-04-06T03:45:08;6.50;;;2.70;;
68025;SDS011;54819;48.030;14.710;2023-04-06T03:47:37;3.90;;;2.30;;
68025;SDS011;54819;48.030;14.710;2023-04-06T03:50:05;8.70;;;3.20;;
68025;SDS011;54819;48.030;14.710;2023-04-06T03:52:34;6.30;;;3.20;;
68025;SDS011;54819;48.030;14.710;2023-04-06T03:55:01;7.70;;;3.40;;
68025;SDS011;54819;48.030;14.710;2023-04-06T03:57:28;10.20;;;3.00;;
68025;SDS011;54819;48.030;14.710;2023-04-06T03:59:56;7.50;;;2.70;;
68025;SDS011;54819;48.030;14.710;2023-04-06T04:02:25;7.90;;;2.70;;
68025;SDS011;54819;48.030;14.710;2023-04-06T04:04:52;8.40;;;3.20;;
68025;SDS011;54819;48.030;14.710;2023-04-06T04:07:18;11.30;;;3.30;;
68025;SDS011;54819;48.030;14.710;2023-04-06T04:09:45;7.30;;;3.00;;
68025;SDS011;54819;48.030;14.710;2023-04-06T04:12:13;6.80;;;3.00;;
68025;SDS011;54819;48.030;14.710;2023-04-06T04:14:41;7.40;;;3.10;;
68025;SDS011;54819;48.030;14.710;2023-04-06T04:17:08;5.90;;;3.10;;
68025;SDS011;54819;48.030;14.710;2023-04-06T04:19:35;6.70;;;3.30;;
68025;SDS011;54819;48.030;14.710;2023-04-06T04:22:02;6.80;;;3.30;;
68025;SDS011;54819;48.030;14.710;2023-04-06T04:24:32;8.30;;;3.60;;
68025;SDS011;54819;48.030;14.710;2023-04-06T04:26:59;7.80;;;3.50;;
68025;SDS011;54819;48.030;14.710;2023-04-06T04:29:30;11.60;;;4.00;;
68025;SDS011;54819;48.030;14.710;2023-04-06T04:32:00;10.40;;;4.10;;
68025;SDS011;54819;48.030;14.710;2023-04-06T04:34:27;9.10;;;3.20;;
68025;SDS011;54819;48.030;14.710;2023-04-06T04:36:54;6.90;;;3.60;;
68025;SDS011;54819;48.030;14.710;2023-04-06T04:39:28;5.40;;;3.00;;
68025;SDS011;54819;48.030;14.710;2023-04-06T04:42:00;6.20;;;2.90;;
68025;SDS011;54819;48.030;14.710;2023-04-06T04:44:27;8.00;;;2.50;;
68025;SDS011;54819;48.030;14.710;2023-04-06T04:46:54;9.90;;;2.90;;
68025;SDS011;54819;48.030;14.710;2023-04-06T04:49:23;6.60;;;2.90;;
68025;SDS011;54819;48.030;14.710;2023-04-06T04:51:50;7.10;;;2.60;;
68025;SDS011;54819;48.030;14.710;2023-04-06T04:54:36;5.60;;;2.60;;
68025;SDS011;54819;48.030;14.710;2023-04-06T04:57:03;8.50;;;3.60;;
68025;SDS011;54819;48.030;14.710;2023-04-06T04:59:37;6.40;;;2.90;;
68025;SDS011;54819;48.030;14.710;2023-04-06T05:02:11;11.80;;;3.10;;
68025;SDS011;54819;48.030;14.710;2023-04-06T05:05:01;7.70;;;3.10;;
68025;SDS011;54819;48.030;14.710;2023-04-06T05:07:27;8.20;;;3.40;;
68025;SDS011;54819;48.030;14.710;2023-04-06T05:09:55;6.40;;;3.20;;
68025;SDS011;54819;48.030;14.710;2023-04-06T05:12:23;8.70;;;3.20;;
68025;SDS011;54819;48.030;14.710;2023-04-06T05:14:59;5.80;;;2.70;;
68025;SDS011;54819;48.030;14.710;2023-04-06T05:17:26;6.70;;;3.10;;
68025;SDS011;54819;48.030;14.710;2023-04-06T05:19:53;5.90;;;2.80;;
68025;SDS011;54819;48.030;14.710;2023-04-06T05:22:22;9.80;;;3.20;;
68025;SDS011;54819;48.030;14.710;2023-04-06T05:24:57;8.10;;;3.00;;
68025;SDS011;54819;48.030;14.710;2023-04-06T05:27:24;6.50;;;3.00;;
68025;SDS011;54819;48.030;14.710;2023-04-06T05:29:51;8.50;;;3.90;;
68025;SDS011;54819;48.030;14.710;2023-04-06T05:32:18;9.60;;;3.30;;
68025;SDS011;54819;48.030;14.710;2023-04-06T05:34:49;6.40;;;3.10;;
68025;SDS011;54819;48.030;14.710;2023-04-06T05:37:16;7.60;;;3.20;;
68025;SDS011;54819;48.030;14.710;2023-04-06T05:39:43;13.00;;;4.40;;
68025;SDS011;54819;48.030;14.710;2023-04-06T05:42:10;11.30;;;3.70;;
68025;SDS011;54819;48.030;14.710;2023-04-06T05:44:50;10.40;;;3.90;;
68025;SDS011;54819;48.030;14.710;2023-04-06T05:47:17;7.40;;;3.20;;
68025;SDS011;54819;48.030;14.710;2023-04-06T05:49:47;10.40;;;3.90;;
68025;SDS011;54819;48.030;14.710;2023-04-06T05:52:20;8.00;;;3.40;;
68025;SDS011;54819;48.030;14.710;2023-04-06T05:54:47;6.60;;;3.20;;
68025;SDS011;54819;48.030;14.710;2023-04-06T05:57:14;10.10;;;3.70;;
68025;SDS011;54819;48.030;14.710;2023-04-06T05:59:43;9.10;;;3.10;;
68025;SDS011;54819;48.030;14.710;2023-04-06T06:02:11;9.80;;;3.30;;
68025;SDS011;54819;48.030;14.710;2023-04-06T06:04:40;9.40;;;3.40;;
68025;SDS011;54819;48.030;14.710;2023-04-06T06:07:08;8.20;;;3.60;;
68025;SDS011;54819;48.030;14.710;2023-04-06T06:09:43;11.30;;;3.80;;
68025;SDS011;54819;48.030;14.710;2023-04-06T06:12:16;13.60;;;4.50;;
68025;SDS011;54819;48.030;14.710;2023-04-06T06:14:43;10.40;;;5.00;;
68025;SDS011;54819;48.030;14.710;2023-04-06T06:17:10;12.90;;;4.80;;
68025;SDS011;54819;48.030;14.710;2023-04-06T06:19:37;6.60;;;2.90;;
68025;SDS011;54819;48.030;14.710;2023-04-06T06:22:05;5.80;;;2.80;;
68025;SDS011;54819;48.030;14.710;2023-04-06T06:24:34;8.50;;;3.00;;
68025;SDS011;54819;48.030;14.710;2023-04-06T06:27:01;6.10;;;2.90;;
68025;SDS011;54819;48.030;14.710;2023-04-06T06:29:30;5.10;;;2.50;;
68025;SDS011;54819;48.030;14.710;2023-04-06T06:31:57;8.30;;;3.70;;
68025;SDS011;54819;48.030;14.710;2023-04-06T06:34:24;6.40;;;3.40;;
68025;SDS011;54819;48.030;14.710;2023-04-06T06:36:52;8.10;;;3.70;;
68025;SDS011;54819;48.030;14.710;2023-04-06T06:39:21;8.90;;;3.70;;
68025;SDS011;54819;48.030;14.710;2023-04-06T06:41:48;12.20;;;4.30;;
68025;SDS011;54819;48.030;14.710;2023-04-06T06:44:15;6.60;;;4.50;;
68025;SDS011;54819;48.030;14.710;2023-04-06T06:46:43;9.40;;;3.90;;
68025;SDS011;54819;48.030;14.710;2023-04-06T06:49:09;12.20;;;4.30;;
68025;SDS011;54819;48.030;14.710;2023-04-06T06:51:38;16.30;;;5.10;;
68025;SDS011;54819;48.030;14.710;2023-04-06T06:54:06;8.70;;;4.30;;
68025;SDS011;54819;48.030;14.710;2023-04-06T06:56:34;9.80;;;4.50;;
68025;SDS011;54819;48.030;14.710;2023-04-06T06:59:04;9.90;;;5.10;;
68025;SDS011;54819;48.030;14.710;2023-04-06T07:01:32;12.30;;;4.90;;
68025;SDS011;54819;48.030;14.710;2023-04-06T07:04:01;11.30;;;4.50;;
68025;SDS011;54819;48.030;14.710;2023-04-06T07:06:28;10.40;;;4.50;;
68025;SDS011;54819;48.030;14.710;2023-04-06T07:08:55;11.10;;;4.70;;
68025;SDS011;54819;48.030;14.710;2023-04-06T07:11:23;10.90;;;6.50;;
68025;SDS011;54819;48.030;14.710;2023-04-06T07:13:49;12.40;;;4.80;;
68025;SDS011;54819;48.030;14.710;2023-04-06T07:16:16;11.00;;;4.40;;
68025;SDS011;54819;48.030;14.710;2023-04-06T07:18:43;11.50;;;4.20;;
68025;SDS011;54819;48.030;14.710;2023-04-06T07:21:10;10.20;;;3.40;;
68025;SDS011;54819;48.030;14.710;2023-04-06T07:23:37;10.10;;;4.40;;
68025;SDS011;54819;48.030;14.710;2023-04-06T07:26:05;9.10;;;3.70;;
68025;SDS011;54819;48.030;14.710;2023-04-06T07:28:32;8.20;;;4.50;;
68025;SDS011;54819;48.030;14.710;2023-04-06T07:31:00;9.30;;;4.30;;
68025;SDS011;54819;48.030;14.710;2023-04-06T07:33:27;11.60;;;4.30;;
68025;SDS011;54819;48.030;14.710;2023-04-06T07:35:56;10.00;;;4.10;;
68025;SDS011;54819;48.030;14.710;2023-04-06T07:40:51;7.80;;;3.60;;
68025;SDS011;54819;48.030;14.710;2023-04-06T07:43:18;10.30;;;4.30;;
68025;SDS011;54819;48.030;14.710;2023-04-06T07:45:45;7.50;;;3.90;;
68025;SDS011;54819;48.030;14.710;2023-04-06T07:48:14;11.40;;;4.00;;
68025;SDS011;54819;48.030;14.710;2023-04-06T07:50:41;10.30;;;4.50;;
68025;SDS011;54819;48.030;14.710;2023-04-06T07:53:08;11.10;;;4.30;;
68025;SDS011;54819;48.030;14.710;2023-04-06T07:55:36;7.10;;;3.70;;
68025;SDS011;54819;48.030;14.710;2023-04-06T07:58:03;8.20;;;4.10;;
68025;SDS011;54819;48.030;14.710;2023-04-06T08:00:30;7.70;;;4.40;;
68025;SDS011;54819;48.030;14.710;2023-04-06T08:02:57;9.30;;;4.40;;
68025;SDS011;54819;48.030;14.710;2023-04-06T08:05:24;8.00;;;3.90;;
68025;SDS011;54819;48.030;14.710;2023-04-06T08:07:51;9.10;;;4.40;;
68025;SDS011;54819;48.030;14.710;2023-04-06T08:10:18;9.50;;;4.40;;
68025;SDS011;54819;48.030;14.710;2023-04-06T08:12:44;9.70;;;4.30;;
68025;SDS011;54819;48.030;14.710;2023-04-06T08:15:11;9.50;;;4.30;;
68025;SDS011;54819;48.030;14.710;2023-04-06T08:17:38;10.80;;;5.00;;
68025;SDS011;54819;48.030;14.710;2023-04-06T08:20:05;13.30;;;5.20;;
68025;SDS011;54819;48.030;14.710;2023-04-06T08:22:32;11.10;;;4.90;;
68025;SDS011;54819;48.030;14.710;2023-04-06T08:24:59;10.30;;;5.00;;
68025;SDS011;54819;48.030;14.710;2023-04-06T08:27:26;14.20;;;5.30;;
68025;SDS011;54819;48.030;14.710;2023-04-06T08:29:53;9.60;;;4.40;;
68025;SDS011;54819;48.030;14.710;2023-04-06T08:32:20;7.80;;;4.20;;
68025;SDS011;54819;48.030;14.710;2023-04-06T08:34:46;9.80;;;5.00;;
68025;SDS011;54819;48.030;14.710;2023-04-06T08:37:13;11.70;;;4.80;;
68025;SDS011;54819;48.030;14.710;2023-04-06T08:39:40;10.40;;;5.20;;
68025;SDS011;54819;48.030;14.710;2023-04-06T08:42:12;8.80;;;4.40;;
68025;SDS011;54819;48.030;14.710;2023-04-06T08:47:13;12.60;;;4.10;;
68025;SDS011;54819;48.030;14.710;2023-04-06T08:49:40;7.10;;;4.00;;
68025;SDS011;54819;48.030;14.710;2023-04-06T08:52:10;12.40;;;4.50;;
68025;SDS011;54819;48.030;14.710;2023-04-06T08:54:38;8.70;;;4.00;;
68025;SDS011;54819;48.030;14.710;2023-04-06T08:57:05;7.60;;;4.00;;
68025;SDS011;54819;48.030;14.710;2023-04-06T08:59:33;9.50;;;4.40;;
68025;SDS011;54819;48.030;14.710;2023-04-06T09:02:03;8.70;;;4.40;;
68025;SDS011;54819;48.030;14.710;2023-04-06T09:04:35;10.20;;;4.00;;
68025;SDS011;54819;48.030;14.710;2023-04-06T09:07:03;11.20;;;4.10;;
68025;SDS011;54819;48.030;14.710;2023-04-06T09:09:30;10.10;;;4.10;;
68025;SDS011;54819;48.030;14.710;2023-04-06T09:11:56;8.40;;;3.80;;
68025;SDS011;54819;48.030;14.710;2023-04-06T09:14:37;8.50;;;4.00;;
68025;SDS011;54819;48.030;14.710;2023-04-06T09:17:05;8.80;;;4.20;;
68025;SDS011;54819;48.030;14.710;2023-04-06T09:19:32;11.80;;;4.10;;
68025;SDS011;54819;48.030;14.710;2023-04-06T09:22:05;8.30;;;4.40;;
68025;SDS011;54819;48.030;14.710;2023-04-06T09:24:43;8.30;;;3.80;;
68025;SDS011;54819;48.030;14.710;2023-04-06T09:27:12;9.30;;;4.40;;
68025;SDS011;54819;48.030;14.710;2023-04-06T09:32:11;6.60;;;3.40;;
68025;SDS011;54819;48.030;14.710;2023-04-06T09:34:38;8.20;;;3.70;;
68025;SDS011;54819;48.030;14.710;2023-04-06T09:37:18;10.80;;;4.40;;
68025;SDS011;54819;48.030;14.710;2023-04-06T09:39:46;7.50;;;4.00;;
68025;SDS011;54819;48.030;14.710;2023-04-06T09:42:25;12.10;;;4.50;;
68025;SDS011;54819;48.030;14.710;2023-04-06T09:44:52;11.70;;;4.20;;
68025;SDS011;54819;48.030;14.710;2023-04-06T09:47:19;7.70;;;3.80;;
68025;SDS011;54819;48.030;14.710;2023-04-06T09:52:16;8.90;;;4.20;;
68025;SDS011;54819;48.030;14.710;2023-04-06T09:54:46;9.00;;;4.30;;
68025;SDS011;54819;48.030;14.710;2023-04-06T10:00:08;9.80;;;4.60;;
68025;SDS011;54819;48.030;14.710;2023-04-06T10:02:49;9.20;;;4.40;;
68025;SDS011;54819;48.030;14.710;2023-04-06T10:08:10;8.80;;;4.70;;
68025;SDS011;54819;48.030;14.710;2023-04-06T10:10:38;12.70;;;4.60;;
68025;SDS011;54819;48.030;14.710;2023-04-06T10:13:05;10.10;;;4.90;;
68025;SDS011;54819;48.030;14.710;2023-04-06T10:15:33;11.80;;;6.00;;
68025;SDS011;54819;48.030;14.710;2023-04-06T10:18:00;11.10;;;5.70;;
68025;SDS011;54819;48.030;14.710;2023-04-06T10:23:12;9.40;;;4.60;;
68025;SDS011;54819;48.030;14.710;2023-04-06T10:25:54;9.10;;;4.70;;
68025;SDS011;54819;48.030;14.710;2023-04-06T10:28:22;7.30;;;4.70;;
68025;SDS011;54819;48.030;14.710;2023-04-06T10:30:56;9.90;;;4.50;;
68025;SDS011;54819;48.030;14.710;2023-04-06T10:33:24;9.80;;;5.10;;
68025;SDS011;54819;48.030;14.710;2023-04-06T10:35:51;9.20;;;5.00;;
68025;SDS011;54819;48.030;14.710;2023-04-06T10:38:19;8.70;;;5.00;;
68025;SDS011;54819;48.030;14.710;2023-04-06T10:40:50;9.10;;;4.60;;
68025;SDS011;54819;48.030;14.710;2023-04-06T10:43:21;7.90;;;4.30;;
68025;SDS011;54819;48.030;14.710;2023-04-06T10:45:56;9.00;;;4.90;;
68025;SDS011;54819;48.030;14.710;2023-04-06T10:48:24;10.80;;;5.00;;
68025;SDS011;54819;48.030;14.710;2023-04-06T10:50:52;8.90;;;4.90;;
68025;SDS011;54819;48.030;14.710;2023-04-06T10:53:23;7.90;;;4.80;;
68025;SDS011;54819;48.030;14.710;2023-04-06T10:55:52;7.70;;;4.70;;
68025;SDS011;54819;48.030;14.710;2023-04-06T10:58:24;8.90;;;5.40;;
68025;SDS011;54819;48.030;14.710;2023-04-06T11:00:53;9.80;;;4.80;;
68025;SDS011;54819;48.030;14.710;2023-04-06T11:03:21;12.50;;;4.40;;
68025;SDS011;54819;48.030;14.710;2023-04-06T11:05:50;7.40;;;4.50;;
68025;SDS011;54819;48.030;14.710;2023-04-06T11:08:29;9.30;;;5.20;;
68025;SDS011;54819;48.030;14.710;2023-04-06T11:11:05;7.90;;;4.70;;
68025;SDS011;54819;48.030;14.710;2023-04-06T11:21:38;10.60;;;5.00;;
68025;SDS011;54819;48.030;14.710;2023-04-06T11:24:20;10.70;;;5.20;;
68025;SDS011;54819;48.030;14.710;2023-04-06T11:26:50;9.00;;;5.30;;
68025;SDS011;54819;48.030;14.710;2023-04-06T11:29:20;11.10;;;4.90;;
68025;SDS011;54819;48.030;14.710;2023-04-06T11:31:50;10.20;;;5.30;;
68025;SDS011;54819;48.030;14.710;2023-04-06T11:34:23;10.70;;;5.30;;
68025;SDS011;54819;48.030;14.710;2023-04-06T11:36:59;9.60;;;5.10;;
68025;SDS011;54819;48.030;14.710;2023-04-06T11:39:28;7.70;;;4.40;;
68025;SDS011;54819;48.030;14.710;2023-04-06T11:42:00;9.20;;;5.00;;
68025;SDS011;54819;48.030;14.710;2023-04-06T11:44:35;9.30;;;5.10;;
68025;SDS011;54819;48.030;14.710;2023-04-06T11:47:06;11.90;;;5.40;;
68025;SDS011;54819;48.030;14.710;2023-04-06T11:49:38;9.20;;;5.20;;
68025;SDS011;54819;48.030;14.710;2023-04-06T11:52:22;9.20;;;5.20;;
68025;SDS011;54819;48.030;14.710;2023-04-06T11:54:52;11.60;;;5.50;;
68025;SDS011;54819;48.030;14.710;2023-04-06T11:57:21;9.40;;;6.10;;
68025;SDS011;54819;48.030;14.710;2023-04-06T11:59:52;11.90;;;5.00;;
68025;SDS011;54819;48.030;14.710;2023-04-06T12:02:19;11.90;;;6.10;;
68025;SDS011;54819;48.030;14.710;2023-04-06T12:04:46;12.20;;;5.30;;
68025;SDS011;54819;48.030;14.710;2023-04-06T12:07:13;9.10;;;5.20;;
68025;SDS011;54819;48.030;14.710;2023-04-06T12:09:39;13.70;;;5.90;;
68025;SDS011;54819;48.030;14.710;2023-04-06T12:12:07;9.30;;;4.60;;
68025;SDS011;54819;48.030;14.710;2023-04-06T12:14:34;10.60;;;5.60;;
68025;SDS011;54819;48.030;14.710;2023-04-06T12:17:01;8.50;;;5.60;;
68025;SDS011;54819;48.030;14.710;2023-04-06T12:19:27;10.00;;;5.80;;
68025;SDS011;54819;48.030;14.710;2023-04-06T12:21:57;10.70;;;5.30;;
68025;SDS011;54819;48.030;14.710;2023-04-06T12:24:24;7.90;;;4.70;;
68025;SDS011;54819;48.030;14.710;2023-04-06T12:26:51;11.00;;;5.10;;
68025;SDS011;54819;48.030;14.710;2023-04-06T12:29:28;15.30;;;7.40;;
68025;SDS011;54819;48.030;14.710;2023-04-06T12:31:55;14.20;;;5.70;;
68025;SDS011;54819;48.030;14.710;2023-04-06T12:34:22;12.70;;;6.00;;
68025;SDS011;54819;48.030;14.710;2023-04-06T12:36:49;14.70;;;6.30;;
68025;SDS011;54819;48.030;14.710;2023-04-06T12:39:18;14.10;;;5.80;;
68025;SDS011;54819;48.030;14.710;2023-04-06T12:41:47;12.80;;;6.20;;
68025;SDS011;54819;48.030;14.710;2023-04-06T12:44:14;11.50;;;5.60;;
68025;SDS011;54819;48.030;14.710;2023-04-06T12:46:40;12.60;;;6.70;;
68025;SDS011;54819;48.030;14.710;2023-04-06T12:49:09;11.50;;;5.80;;
68025;SDS011;54819;48.030;14.710;2023-04-06T12:51:36;11.10;;;6.40;;
68025;SDS011;54819;48.030;14.710;2023-04-06T12:54:03;12.60;;;6.80;;
68025;SDS011;54819;48.030;14.710;2023-04-06T12:56:29;9.80;;;6.20;;
68025;SDS011;54819;48.030;14.710;2023-04-06T12:58:57;10.40;;;6.20;;
68025;SDS011;54819;48.030;14.710;2023-04-06T13:01:24;12.10;;;6.40;;
68025;SDS011;54819;48.030;14.710;2023-04-06T13:03:53;11.80;;;6.00;;
68025;SDS011;54819;48.030;14.710;2023-04-06T13:06:19;10.10;;;6.40;;
68025;SDS011;54819;48.030;14.710;2023-04-06T13:08:46;11.40;;;5.60;;
68025;SDS011;54819;48.030;14.710;2023-04-06T13:11:16;14.10;;;7.10;;
68025;SDS011;54819;48.030;14.710;2023-04-06T13:13:42;10.80;;;6.90;;
68025;SDS011;54819;48.030;14.710;2023-04-06T13:16:09;8.60;;;6.30;;
68025;SDS011;54819;48.030;14.710;2023-04-06T13:18:36;10.70;;;6.50;;
68025;SDS011;54819;48.030;14.710;2023-04-06T13:21:05;11.30;;;5.90;;
68025;SDS011;54819;48.030;14.710;2023-04-06T13:26:04;8.40;;;5.60;;
68025;SDS011;54819;48.030;14.710;2023-04-06T13:28:33;11.30;;;6.30;;
68025;SDS011;54819;48.030;14.710;2023-04-06T13:31:02;11.40;;;6.50;;
68025;SDS011;54819;48.030;14.710;2023-04-06T13:33:30;11.20;;;6.30;;
68025;SDS011;54819;48.030;14.710;2023-04-06T13:35:58;10.20;;;5.90;;
68025;SDS011;54819;48.030;14.710;2023-04-06T13:40:52;7.80;;;5.00;;
68025;SDS011;54819;48.030;14.710;2023-04-06T13:43:19;10.50;;;5.80;;
68025;SDS011;54819;48.030;14.710;2023-04-06T13:45:51;9.40;;;4.80;;
68025;SDS011;54819;48.030;14.710;2023-04-06T13:48:20;12.10;;;5.40;;
68025;SDS011;54819;48.030;14.710;2023-04-06T13:50:47;15.20;;;8.20;;
68025;SDS011;54819;48.030;14.710;2023-04-06T13:53:14;10.50;;;5.80;;
68025;SDS011;54819;48.030;14.710;2023-04-06T13:55:41;10.80;;;5.70;;
68025;SDS011;54819;48.030;14.710;2023-04-06T13:58:08;10.20;;;5.40;;
68025;SDS011;54819;48.030;14.710;2023-04-06T14:00:35;10.00;;;5.00;;
68025;SDS011;54819;48.030;14.710;2023-04-06T14:03:02;8.80;;;5.80;;
68025;SDS011;54819;48.030;14.710;2023-04-06T14:05:32;9.90;;;5.30;;
68025;SDS011;54819;48.030;14.710;2023-04-06T14:07:59;11.20;;;5.20;;
68025;SDS011;54819;48.030;14.710;2023-04-06T14:10:26;10.90;;;5.00;;
68025;SDS011;54819;48.030;14.710;2023-04-06T14:12:55;9.00;;;4.90;;
68025;SDS011;54819;48.030;14.710;2023-04-06T14:17:50;10.60;;;5.10;;
68025;SDS011;54819;48.030;14.710;2023-04-06T14:20:18;9.80;;;5.50;;
68025;SDS011;54819;48.030;14.710;2023-04-06T14:22:45;9.50;;;5.10;;
68025;SDS011;54819;48.030;14.710;2023-04-06T14:25:13;10.40;;;5.40;;
68025;SDS011;54819;48.030;14.710;2023-04-06T14:27:40;11.10;;;5.50;;
68025;SDS011;54819;48.030;14.710;2023-04-06T14:30:07;9.50;;;5.40;;
68025;SDS011;54819;48.030;14.710;2023-04-06T14:32:34;8.00;;;5.00;;
68025;SDS011;54819;48.030;14.710;2023-04-06T14:35:04;11.30;;;5.60;;
68025;SDS011;54819;48.030;14.710;2023-04-06T14:37:33;8.80;;;5.30;;
68025;SDS011;54819;48.030;14.710;2023-04-06T14:40:00;8.70;;;5.40;;
68025;SDS011;54819;48.030;14.710;2023-04-06T14:42:28;12.60;;;5.90;;
68025;SDS011;54819;48.030;14.710;2023-04-06T14:44:55;11.10;;;5.10;;
68025;SDS011;54819;48.030;14.710;2023-04-06T14:47:22;8.20;;;4.80;;
68025;SDS011;54819;48.030;14.710;2023-04-06T14:49:50;9.10;;;4.90;;
68025;SDS011;54819;48.030;14.710;2023-04-06T14:52:18;9.50;;;5.40;;
68025;SDS011;54819;48.030;14.710;2023-04-06T14:54:45;9.30;;;4.70;;
68025;SDS011;54819;48.030;14.710;2023-04-06T14:57:12;9.70;;;5.20;;
68025;SDS011;54819;48.030;14.710;2023-04-06T14:59:39;13.00;;;5.40;;
68025;SDS011;54819;48.030;14.710;2023-04-06T15:02:06;7.50;;;4.50;;
68025;SDS011;54819;48.030;14.710;2023-04-06T15:04:34;8.70;;;5.00;;
68025;SDS011;54819;48.030;14.710;2023-04-06T15:07:02;10.90;;;5.60;;
68025;SDS011;54819;48.030;14.710;2023-04-06T15:09:29;9.40;;;5.00;;
68025;SDS011;54819;48.030;14.710;2023-04-06T15:11:56;8.90;;;5.10;;
68025;SDS011;54819;48.030;14.710;2023-04-06T15:14:23;9.00;;;4.80;;
68025;SDS011;54819;48.030;14.710;2023-04-06T15:16:50;11.90;;;5.50;;
68025;SDS011;54819;48.030;14.710;2023-04-06T15:19:17;8.90;;;5.00;;